Time;durP1;ratioP1;P1;durP2;ratioP2;P2;SDS_P1;SDS_P2;PMS_P1;PMS_P2;Temp;Humidity;BMP_temperature;BMP_pressure;BME280_temperature;BME280_humidity;BME280_pressure;Samples;Min_cycle;Max_cycle;Signal;HPM_P1;HPM_P2
2023/08/11 00:02:07;;;;;;;2.97;1.58;;;17.10;99.90;;;;;;5040780;28;20061;-67
2023/08/11 00:04:33;;;;;;;4.88;1.58;;;17.20;99.90;;;;;;5025321;28;20444;-67
2023/08/11 00:06:59;;;;;;;3.75;1.77;;;17.20;99.90;;;;;;5041820;28;20103;-67
2023/08/11 00:09:26;;;;;;;4.18;1.90;;;17.20;99.90;;;;;;5024922;28;20481;-67
2023/08/11 00:11:52;;;;;;;2.47;1.35;;;17.20;99.90;;;;;;5042368;28;20029;-66
2023/08/11 00:14:17;;;;;;;2.78;1.45;;;17.20;99.90;;;;;;5023409;28;20020;-66
2023/08/11 00:16:43;;;;;;;3.38;1.88;;;17.30;99.90;;;;;;5040736;28;21331;-67
2023/08/11 00:19:09;;;;;;;6.68;1.60;;;17.30;99.90;;;;;;5038041;28;20033;-67
2023/08/11 00:21:35;;;;;;;4.53;2.17;;;17.30;99.90;;;;;;5042008;28;20029;-66
2023/08/11 00:24:00;;;;;;;7.32;2.17;;;17.40;99.90;;;;;;5039384;28;20497;-67
2023/08/11 00:26:26;;;;;;;3.80;1.92;;;17.30;99.90;;;;;;5042597;28;20744;-67
2023/08/11 00:28:52;;;;;;;18.00;2.50;;;16.90;99.90;;;;;;5040805;28;20124;-67
2023/08/11 00:31:17;;;;;;;2.10;1.17;;;17.00;99.90;;;;;;5041844;28;20017;-67
2023/08/11 00:33:46;;;;;;;3.63;1.92;;;16.80;99.90;;;;;;5041674;28;20029;-67
2023/08/11 00:36:17;;;;;;;6.88;1.70;;;16.90;99.90;;;;;;5040335;28;20480;-67
2023/08/11 00:38:42;;;;;;;3.92;2.10;;;16.70;99.90;;;;;;5040653;28;20037;-67
2023/08/11 00:41:08;;;;;;;6.55;2.63;;;16.80;99.90;;;;;;5042501;28;20033;-66
2023/08/11 00:43:34;;;;;;;3.47;1.70;;;16.90;99.90;;;;;;5021980;28;20033;-66
2023/08/11 00:46:12;;;;;;;4.55;2.13;;;16.90;99.90;;;;;;5041696;28;20025;-66
2023/08/11 00:48:42;;;;;;;3.63;1.63;;;17.00;99.90;;;;;;5013464;28;20029;-66
2023/08/11 00:51:14;;;;;;;5.22;2.13;;;17.00;99.90;;;;;;5025123;28;20120;-66
2023/08/11 00:53:40;;;;;;;3.25;1.27;;;16.80;99.90;;;;;;5022533;28;20040;-66
2023/08/11 00:56:07;;;;;;;2.60;1.38;;;16.50;99.90;;;;;;5021566;28;20029;-67
2023/08/11 00:58:34;;;;;;;2.67;1.67;;;16.30;99.90;;;;;;5020840;28;20099;-66
2023/08/11 01:01:00;;;;;;;3.72;1.48;;;16.40;99.90;;;;;;5020012;28;20447;-67
2023/08/11 01:03:26;;;;;;;2.63;1.45;;;16.40;99.90;;;;;;5038262;28;20033;-66
2023/08/11 01:06:44;;;;;;;4.40;2.53;;;16.40;99.90;;;;;;5022854;28;20039;-67
2023/08/11 01:09:47;;;;;;;5.20;2.42;;;16.40;99.90;;;;;;5047168;28;20393;-67
2023/08/11 01:12:56;;;;;;;6.80;1.98;;;16.40;99.90;;;;;;5041900;28;20037;-67
2023/08/11 01:15:34;;;;;;;3.55;2.22;;;16.50;99.90;;;;;;5041061;28;20033;-66
2023/08/11 01:18:03;;;;;;;3.65;1.92;;;16.60;99.90;;;;;;5042519;28;20040;-66
2023/08/11 01:20:29;;;;;;;4.28;1.92;;;16.60;99.90;;;;;;5024547;28;20158;-66
2023/08/11 01:22:59;;;;;;;4.28;2.03;;;16.70;99.90;;;;;;5047825;28;20033;-66
2023/08/11 01:25:25;;;;;;;4.93;1.92;;;16.70;99.90;;;;;;5035201;28;20027;-66
2023/08/11 01:28:00;;;;;;;3.47;1.83;;;16.70;99.90;;;;;;5027796;28;20167;-66
2023/08/11 01:30:28;;;;;;;3.35;1.90;;;16.70;99.90;;;;;;5023017;28;20170;-66
2023/08/11 01:32:54;;;;;;;3.08;1.60;;;16.70;99.90;;;;;;5017872;28;20026;-65
2023/08/11 01:35:21;;;;;;;5.90;1.80;;;16.60;99.90;;;;;;5037285;28;20048;-66
2023/08/11 01:37:50;;;;;;;3.13;1.50;;;16.30;99.90;;;;;;5039462;28;20025;-66
2023/08/11 01:40:16;;;;;;;3.10;1.73;;;16.20;99.90;;;;;;5021965;28;20048;-66
2023/08/11 01:42:44;;;;;;;4.95;2.22;;;16.00;99.90;;;;;;5039416;28;20392;-66
2023/08/11 01:45:13;;;;;;;3.45;1.42;;;16.00;99.90;;;;;;5007442;28;20040;-66
2023/08/11 01:47:44;;;;;;;5.88;1.90;;;15.90;99.90;;;;;;5040078;28;20311;-66
2023/08/11 01:50:11;;;;;;;3.67;1.77;;;15.80;99.90;;;;;;5024075;28;20064;-66
2023/08/11 01:52:45;;;;;;;2.63;1.52;;;15.80;99.90;;;;;;5020532;28;20048;-67
2023/08/11 01:55:13;;;;;;;3.17;1.60;;;15.70;99.90;;;;;;5041771;28;20055;-66
2023/08/11 01:57:41;;;;;;;4.28;1.67;;;15.70;99.90;;;;;;5021332;28;20107;-67
2023/08/11 02:00:12;;;;;;;3.08;1.55;;;15.70;99.90;;;;;;5040936;28;20041;-66
2023/08/11 02:02:39;;;;;;;6.35;1.75;;;15.80;99.90;;;;;;5019858;28;20025;-66
2023/08/11 02:05:11;;;;;;;3.15;1.83;;;15.70;99.90;;;;;;5020877;28;20109;-66
2023/08/11 02:07:40;;;;;;;4.63;1.80;;;15.60;99.90;;;;;;5022963;28;20025;-66
2023/08/11 02:10:11;;;;;;;3.20;1.70;;;15.70;99.90;;;;;;5039091;28;20593;-66
2023/08/11 02:12:39;;;;;;;2.58;1.70;;;15.80;99.90;;;;;;5042942;28;20344;-67
2023/08/11 02:15:05;;;;;;;4.03;2.00;;;15.70;99.90;;;;;;5027761;28;20048;-67
2023/08/11 02:17:32;;;;;;;4.78;1.98;;;15.80;99.90;;;;;;5042590;28;20017;-67
2023/08/11 02:19:59;;;;;;;2.65;1.40;;;15.80;99.90;;;;;;5045266;28;20511;-67
2023/08/11 02:22:26;;;;;;;3.45;1.83;;;15.70;99.90;;;;;;5042666;28;20036;-67
2023/08/11 02:24:51;;;;;;;3.72;2.03;;;15.70;99.90;;;;;;5010540;28;20028;-67
2023/08/11 02:27:17;;;;;;;3.42;1.83;;;15.70;99.90;;;;;;5027566;28;20044;-67
2023/08/11 02:29:49;;;;;;;5.32;2.17;;;15.80;99.90;;;;;;5043574;28;20108;-67
2023/08/11 02:32:15;;;;;;;3.38;1.90;;;15.70;99.90;;;;;;5044447;28;20020;-67
2023/08/11 02:34:41;;;;;;;4.15;1.95;;;15.50;99.90;;;;;;5043104;28;20116;-67
2023/08/11 02:37:08;;;;;;;5.80;1.95;;;15.60;99.90;;;;;;5042852;28;20055;-67
2023/08/11 02:39:34;;;;;;;3.65;1.70;;;15.30;99.90;;;;;;5026677;28;20036;-67
2023/08/11 02:42:00;;;;;;;2.88;1.92;;;15.30;99.90;;;;;;5027704;28;20063;-67
2023/08/11 02:44:26;;;;;;;4.45;2.30;;;15.40;99.90;;;;;;5042354;28;20020;-67
2023/08/11 02:46:52;;;;;;;3.80;2.05;;;15.20;99.90;;;;;;5047867;28;20511;-67
2023/08/11 02:49:17;;;;;;;4.10;2.20;;;15.30;99.90;;;;;;5039548;28;20396;-67
2023/08/11 02:51:44;;;;;;;3.83;2.22;;;15.20;99.90;;;;;;5034359;28;20376;-67
2023/08/11 02:54:11;;;;;;;5.15;1.92;;;15.20;99.90;;;;;;5043326;28;20647;-67
2023/08/11 02:56:36;;;;;;;3.80;1.83;;;15.30;99.90;;;;;;5042494;28;20025;-67
2023/08/11 02:59:03;;;;;;;3.70;1.65;;;15.20;99.90;;;;;;5043201;28;20033;-67
2023/08/11 03:01:28;;;;;;;2.75;1.80;;;15.30;99.90;;;;;;5025305;28;20116;-67
2023/08/11 03:03:54;;;;;;;4.85;2.60;;;15.40;99.90;;;;;;5043163;28;20575;-67
2023/08/11 03:06:20;;;;;;;4.30;1.85;;;15.50;99.90;;;;;;5041401;28;20032;-67
2023/08/11 03:08:46;;;;;;;7.90;2.13;;;15.60;99.90;;;;;;5024681;28;20024;-66
2023/08/11 03:11:12;;;;;;;3.67;1.70;;;15.60;99.90;;;;;;5044096;28;20135;-67
2023/08/11 03:13:40;;;;;;;5.10;2.45;;;15.50;99.90;;;;;;5041204;28;20033;-67
2023/08/11 03:16:06;;;;;;;5.93;2.40;;;15.50;99.90;;;;;;5025811;28;20028;-67
2023/08/11 03:18:32;;;;;;;2.58;1.02;;;15.60;99.90;;;;;;5043651;28;20034;-67
2023/08/11 03:20:57;;;;;;;4.10;2.03;;;15.60;99.90;;;;;;5043874;28;20048;-67
2023/08/11 03:23:23;;;;;;;2.90;1.58;;;15.70;99.90;;;;;;5040983;28;20033;-68
2023/08/11 03:25:49;;;;;;;5.25;1.85;;;15.70;99.90;;;;;;5042151;28;20025;-67
2023/08/11 03:28:15;;;;;;;4.68;2.20;;;15.60;99.90;;;;;;5043684;28;20104;-67
2023/08/11 03:30:40;;;;;;;3.65;1.75;;;15.50;99.90;;;;;;5041832;28;20041;-67
2023/08/11 03:33:06;;;;;;;3.03;1.33;;;15.40;99.90;;;;;;5041872;28;20021;-66
2023/08/11 03:35:33;;;;;;;4.78;1.75;;;15.40;99.90;;;;;;5043203;28;20095;-66
2023/08/11 03:37:59;;;;;;;7.07;1.63;;;15.20;99.90;;;;;;5023973;28;20116;-66
2023/08/11 03:40:25;;;;;;;3.67;2.03;;;15.00;99.90;;;;;;5042354;28;20028;-66
2023/08/11 03:42:51;;;;;;;3.53;1.85;;;15.10;99.90;;;;;;5042283;28;20048;-66
2023/08/11 03:45:16;;;;;;;3.55;1.77;;;14.90;99.90;;;;;;5041119;28;20111;-65
2023/08/11 03:47:43;;;;;;;2.22;1.17;;;14.80;99.90;;;;;;5010098;28;20060;-66
2023/08/11 03:50:10;;;;;;;3.97;2.20;;;14.60;99.90;;;;;;5041741;28;20116;-66
2023/08/11 03:52:37;;;;;;;4.47;1.90;;;14.50;99.90;;;;;;5042556;28;20029;-66
2023/08/11 03:55:04;;;;;;;3.45;1.80;;;14.40;99.90;;;;;;5006882;28;20048;-66
2023/08/11 03:57:30;;;;;;;3.03;1.95;;;14.40;99.90;;;;;;5040608;28;20025;-67
2023/08/11 03:59:56;;;;;;;3.15;1.80;;;14.50;99.90;;;;;;5043212;28;20558;-66
2023/08/11 04:02:23;;;;;;;3.97;1.70;;;14.50;99.90;;;;;;5040473;28;20506;-67
2023/08/11 04:04:48;;;;;;;9.00;2.38;;;14.70;99.90;;;;;;5042937;28;20117;-66
2023/08/11 04:07:14;;;;;;;5.63;1.83;;;14.80;99.90;;;;;;5048065;28;20096;-66
2023/08/11 04:09:43;;;;;;;4.45;2.20;;;14.70;99.90;;;;;;5046818;28;20113;-66
2023/08/11 04:12:10;;;;;;;3.78;1.88;;;14.70;99.90;;;;;;5041662;28;20052;-66
2023/08/11 04:14:39;;;;;;;10.27;2.60;;;14.60;99.90;;;;;;5040315;28;20080;-66
2023/08/11 04:17:05;;;;;;;4.47;1.95;;;14.50;99.90;;;;;;5026403;28;20026;-66
2023/08/11 04:19:32;;;;;;;2.75;1.60;;;14.60;99.90;;;;;;5025497;28;20028;-66
2023/08/11 04:21:57;;;;;;;5.63;2.15;;;14.70;99.90;;;;;;5025386;28;20032;-66
2023/08/11 04:24:23;;;;;;;2.92;1.77;;;14.80;99.90;;;;;;5039915;28;20477;-66
2023/08/11 04:26:51;;;;;;;2.90;1.65;;;14.90;99.90;;;;;;5041715;28;20035;-68
2023/08/11 04:29:17;;;;;;;9.38;2.05;;;15.00;99.90;;;;;;5042154;28;20029;-67
2023/08/11 04:31:43;;;;;;;3.65;2.00;;;15.20;99.90;;;;;;5040603;28;20018;-67
2023/08/11 04:34:10;;;;;;;4.03;2.17;;;15.20;99.90;;;;;;5040491;28;20029;-67
2023/08/11 04:36:37;;;;;;;8.98;1.90;;;15.30;99.90;;;;;;5042387;28;21324;-67
2023/08/11 04:39:03;;;;;;;2.95;1.80;;;15.10;99.90;;;;;;5057008;22;20041;-72
2023/08/11 04:41:29;;;;;;;4.97;1.95;;;15.10;99.90;;;;;;5026074;28;20112;-71
2023/08/11 04:43:55;;;;;;;6.47;2.13;;;15.20;99.90;;;;;;5019483;28;20124;-71
2023/08/11 04:46:20;;;;;;;3.25;1.65;;;15.10;99.90;;;;;;5005307;28;20053;-71
2023/08/11 04:48:46;;;;;;;4.80;2.35;;;15.00;99.90;;;;;;5019595;28;20108;-71
2023/08/11 04:51:12;;;;;;;5.35;2.00;;;14.90;99.90;;;;;;5022122;28;20037;-71
2023/08/11 04:53:38;;;;;;;4.95;2.05;;;15.00;99.90;;;;;;5021471;28;20096;-71
2023/08/11 04:56:03;;;;;;;5.38;2.50;;;15.10;99.90;;;;;;5036811;28;20025;-71
2023/08/11 04:58:29;;;;;;;5.90;2.30;;;15.20;99.90;;;;;;5024154;28;20025;-67
2023/08/11 05:00:55;;;;;;;4.57;2.05;;;15.30;99.90;;;;;;5023053;28;20037;-67
2023/08/11 05:03:21;;;;;;;5.95;1.80;;;15.40;99.90;;;;;;5022611;28;20400;-67
2023/08/11 05:05:46;;;;;;;9.60;2.22;;;15.40;99.90;;;;;;5021746;28;20037;-68
2023/08/11 05:08:13;;;;;;;7.53;2.55;;;15.50;99.90;;;;;;5010744;28;20036;-68
2023/08/11 05:10:38;;;;;;;4.63;2.28;;;15.60;99.90;;;;;;5010603;28;20474;-68
2023/08/11 05:13:04;;;;;;;5.57;2.08;;;15.60;99.90;;;;;;5017640;28;20099;-68
2023/08/11 05:15:30;;;;;;;4.53;2.33;;;15.70;99.90;;;;;;5020737;28;20491;-68
2023/08/11 05:17:56;;;;;;;6.00;2.50;;;15.70;99.90;;;;;;5021605;28;20030;-68
2023/08/11 05:20:22;;;;;;;7.68;2.22;;;15.80;99.90;;;;;;5018415;28;20137;-68
2023/08/11 05:22:48;;;;;;;3.10;1.80;;;15.70;99.90;;;;;;5020059;28;20025;-68
2023/08/11 05:25:14;;;;;;;4.80;2.15;;;15.70;99.90;;;;;;5021284;28;20022;-68
2023/08/11 05:27:40;;;;;;;4.13;2.55;;;15.70;99.90;;;;;;5020759;28;20029;-68
2023/08/11 05:30:08;;;;;;;2.90;1.92;;;15.70;99.90;;;;;;5018184;28;20108;-69
2023/08/11 05:32:34;;;;;;;6.63;2.75;;;15.80;99.90;;;;;;5018513;28;20025;-67
2023/08/11 05:35:00;;;;;;;3.47;1.85;;;15.90;99.90;;;;;;5017779;28;20033;-68
2023/08/11 05:37:26;;;;;;;8.60;2.88;;;15.90;99.90;;;;;;5018745;28;20034;-68
2023/08/11 05:39:55;;;;;;;6.72;2.65;;;15.90;99.90;;;;;;5018756;28;20030;-70
2023/08/11 05:42:22;;;;;;;8.93;2.83;;;16.00;99.90;;;;;;5021002;28;20045;-69
2023/08/11 05:44:47;;;;;;;4.72;2.40;;;16.10;99.90;;;;;;5017242;28;20111;-69
2023/08/11 05:47:13;;;;;;;6.97;2.78;;;16.20;99.90;;;;;;5020738;28;20033;-69
2023/08/11 05:49:39;;;;;;;6.15;3.22;;;16.30;99.90;;;;;;5001033;28;20556;-69
2023/08/11 05:52:05;;;;;;;3.97;2.35;;;16.40;99.90;;;;;;5032121;28;20494;-68
2023/08/11 05:54:31;;;;;;;4.55;2.47;;;16.50;99.90;;;;;;5020055;28;20038;-70
2023/08/11 05:56:57;;;;;;;5.97;2.75;;;16.60;99.90;;;;;;5019461;28;20040;-70
2023/08/11 05:59:24;;;;;;;4.38;2.47;;;16.70;99.90;;;;;;5020866;28;20029;-70
2023/08/11 06:01:50;;;;;;;4.75;2.33;;;16.80;99.90;;;;;;5020324;28;20028;-67
2023/08/11 06:04:16;;;;;;;7.30;2.53;;;16.80;99.90;;;;;;5019206;28;20057;-70
2023/08/11 06:06:42;;;;;;;6.93;3.10;;;16.90;99.90;;;;;;5021232;28;20044;-70
2023/08/11 06:09:09;;;;;;;4.50;2.58;;;17.00;99.90;;;;;;5019558;28;20478;-70
2023/08/11 06:11:35;;;;;;;6.28;2.75;;;17.00;99.90;;;;;;5020898;28;20556;-70
2023/08/11 06:14:02;;;;;;;5.15;2.97;;;17.10;99.90;;;;;;5019536;28;20025;-68
2023/08/11 06:16:28;;;;;;;6.47;2.63;;;17.30;99.90;;;;;;5019273;28;20099;-68
2023/08/11 06:18:54;;;;;;;6.72;3.42;;;17.40;99.90;;;;;;5038260;28;20489;-67
2023/08/11 06:21:20;;;;;;;7.80;2.63;;;17.50;99.90;;;;;;5038429;28;20067;-69
2023/08/11 06:23:46;;;;;;;6.53;2.80;;;17.50;99.90;;;;;;5032419;28;20077;-68
2023/08/11 06:26:12;;;;;;;6.38;2.75;;;17.60;99.90;;;;;;5012626;28;20083;-68
2023/08/11 06:28:38;;;;;;;4.97;2.75;;;17.70;99.90;;;;;;5025126;28;20026;-68
2023/08/11 06:31:04;;;;;;;8.45;3.40;;;17.80;99.90;;;;;;5025048;28;20108;-68
2023/08/11 06:33:30;;;;;;;4.32;2.53;;;17.90;99.90;;;;;;5044914;28;20083;-68
2023/08/11 06:35:56;;;;;;;5.20;2.88;;;18.00;99.90;;;;;;5045225;28;20033;-69
2023/08/11 06:38:21;;;;;;;8.77;2.78;;;18.00;99.90;;;;;;5018484;28;20037;-69
2023/08/11 06:40:47;;;;;;;4.85;2.58;;;18.00;99.90;;;;;;5021860;28;20037;-69
2023/08/11 06:43:13;;;;;;;6.60;3.83;;;18.00;99.90;;;;;;5029135;28;20389;-72
2023/08/11 06:45:41;;;;;;;5.32;3.22;;;18.10;99.90;;;;;;5028235;28;20038;-66
2023/08/11 06:48:07;;;;;;;6.72;2.97;;;18.10;99.90;;;;;;5028625;28;20036;-67
2023/08/11 06:50:33;;;;;;;8.98;2.80;;;18.20;99.90;;;;;;5017799;28;20038;-67
2023/08/11 06:52:58;;;;;;;15.05;3.17;;;18.30;99.90;;;;;;5009222;28;20551;-67
2023/08/11 06:55:24;;;;;;;10.07;2.72;;;18.30;99.90;;;;;;5010077;28;20517;-69
2023/08/11 06:57:50;;;;;;;7.45;3.17;;;18.40;99.90;;;;;;5012003;28;20042;-68
2023/08/11 07:00:16;;;;;;;6.57;2.60;;;18.60;99.90;;;;;;5030533;28;20025;-67
2023/08/11 07:02:42;;;;;;;4.93;2.70;;;18.60;99.90;;;;;;5043246;28;20512;-67
2023/08/11 07:05:08;;;;;;;4.90;2.20;;;18.70;99.90;;;;;;5034021;28;20037;-67
2023/08/11 07:07:33;;;;;;;10.40;3.67;;;18.90;99.90;;;;;;5056960;28;20052;-67
2023/08/11 07:09:59;;;;;;;5.30;2.63;;;19.00;99.90;;;;;;5042042;28;20454;-67
2023/08/11 07:12:25;;;;;;;6.22;3.20;;;19.10;99.90;;;;;;5049378;28;20035;-68
2023/08/11 07:14:51;;;;;;;5.38;2.67;;;19.10;99.90;;;;;;5027706;28;20029;-68
2023/08/11 07:17:17;;;;;;;4.88;2.55;;;19.30;99.90;;;;;;5018279;28;20025;-67
2023/08/11 07:19:42;;;;;;;3.08;1.85;;;19.20;99.90;;;;;;5037010;28;20492;-66
2023/08/11 07:22:08;;;;;;;11.32;3.20;;;19.30;99.90;;;;;;5038754;28;20056;-67
2023/08/11 07:24:34;;;;;;;5.32;2.47;;;19.50;99.90;;;;;;5041439;28;20041;-66
2023/08/11 07:27:00;;;;;;;5.85;2.70;;;19.60;99.90;;;;;;5030999;28;20168;-67
2023/08/11 07:29:25;;;;;;;11.15;4.20;;;19.60;99.90;;;;;;5033884;28;20072;-67
2023/08/11 07:31:51;;;;;;;4.82;2.72;;;19.70;99.90;;;;;;5026672;28;20037;-67
2023/08/11 07:34:17;;;;;;;4.90;2.63;;;19.70;99.90;;;;;;5057447;28;20032;-67
2023/08/11 07:36:43;;;;;;;6.00;2.83;;;19.80;99.90;;;;;;5051813;28;20033;-66
2023/08/11 07:39:09;;;;;;;5.93;2.60;;;19.80;99.90;;;;;;5051389;28;20033;-65
2023/08/11 07:41:36;;;;;;;6.90;2.50;;;19.90;99.90;;;;;;5051722;28;20385;-67
2023/08/11 07:44:02;;;;;;;5.78;2.95;;;20.00;99.90;;;;;;5043487;28;20022;-67
2023/08/11 07:46:28;;;;;;;8.27;3.90;;;20.20;99.90;;;;;;5020870;28;20149;-67
2023/08/11 07:48:55;;;;;;;9.13;3.75;;;20.30;99.90;;;;;;5031267;28;20037;-67
2023/08/11 07:51:21;;;;;;;6.03;3.17;;;20.30;99.90;;;;;;5032351;28;20033;-67
2023/08/11 07:53:47;;;;;;;8.80;2.92;;;20.30;99.90;;;;;;5031803;28;20033;-67
2023/08/11 07:56:13;;;;;;;7.13;2.78;;;20.40;99.90;;;;;;5032291;28;20115;-67
2023/08/11 07:58:40;;;;;;;11.13;3.25;;;20.50;99.90;;;;;;5031229;28;20076;-69
2023/08/11 08:01:08;;;;;;;10.57;3.10;;;20.60;99.90;;;;;;5030983;28;20033;-69
2023/08/11 08:03:38;;;;;;;5.78;3.08;;;20.70;99.90;;;;;;5031264;28;20029;-68
2023/08/11 08:06:05;;;;;;;6.22;3.22;;;20.80;99.90;;;;;;5047244;28;20067;-68
2023/08/11 08:08:34;;;;;;;8.27;2.95;;;20.70;99.90;;;;;;5031852;28;20033;-68
2023/08/11 08:11:01;;;;;;;4.95;2.85;;;20.80;99.90;;;;;;5047529;28;20026;-68
2023/08/11 08:13:28;;;;;;;5.68;2.47;;;20.90;99.90;;;;;;5046859;28;20061;-68
2023/08/11 08:15:54;;;;;;;6.07;2.55;;;21.00;99.90;;;;;;5031958;28;20034;-69
2023/08/11 08:18:20;;;;;;;5.80;3.03;;;21.10;99.90;;;;;;5047365;28;20504;-69
2023/08/11 08:20:47;;;;;;;6.13;3.00;;;21.10;99.90;;;;;;5031814;28;20030;-68
2023/08/11 08:23:12;;;;;;;4.80;3.08;;;21.20;99.90;;;;;;5046102;28;20029;-68
2023/08/11 08:25:39;;;;;;;3.83;2.35;;;21.40;99.90;;;;;;5031929;28;20036;-68
2023/08/11 08:28:05;;;;;;;8.88;2.83;;;21.50;99.90;;;;;;5030716;28;20029;-68
2023/08/11 08:30:33;;;;;;;6.63;2.40;;;21.70;99.90;;;;;;5040900;28;20366;-69
2023/08/11 08:32:58;;;;;;;5.53;2.53;;;21.80;99.90;;;;;;5049461;28;20037;-68
2023/08/11 08:35:24;;;;;;;6.38;2.88;;;21.80;99.90;;;;;;5050471;28;20037;-68
2023/08/11 08:37:50;;;;;;;6.13;2.80;;;21.90;99.90;;;;;;5042696;28;20033;-68
2023/08/11 08:40:16;;;;;;;5.75;2.55;;;21.90;99.90;;;;;;5011380;28;20038;-68
2023/08/11 08:42:43;;;;;;;6.13;2.30;;;22.10;99.90;;;;;;5011009;28;20040;-68
2023/08/11 08:45:09;;;;;;;6.60;2.08;;;22.20;99.90;;;;;;5010314;28;20088;-68
2023/08/11 08:47:35;;;;;;;5.15;2.45;;;22.20;99.90;;;;;;5017601;28;20033;-68
2023/08/11 08:50:03;;;;;;;4.38;2.20;;;22.30;99.90;;;;;;5026248;28;20065;-68
2023/08/11 08:52:30;;;;;;;2.95;1.85;;;22.30;99.90;;;;;;5009785;28;20041;-68
2023/08/11 08:54:57;;;;;;;2.78;1.50;;;22.40;99.90;;;;;;5011446;28;20474;-68
2023/08/11 08:57:27;;;;;;;11.10;2.35;;;22.50;99.90;;;;;;5010121;28;20070;-67
2023/08/11 08:59:53;;;;;;;4.45;1.83;;;22.60;99.90;;;;;;5017734;28;20070;-67
2023/08/11 09:02:21;;;;;;;3.55;1.48;;;22.70;99.90;;;;;;5030006;28;20105;-67
2023/08/11 09:04:47;;;;;;;2.92;1.48;;;22.70;99.90;;;;;;5029945;28;20021;-68
2023/08/11 09:07:13;;;;;;;4.35;1.77;;;22.90;99.90;;;;;;5031031;28;20041;-67
2023/08/11 09:09:39;;;;;;;4.20;1.58;;;22.80;99.90;;;;;;5029526;28;20021;-68
2023/08/11 09:12:05;;;;;;;5.25;2.67;;;23.00;99.90;;;;;;5030936;28;20028;-68
2023/08/11 09:14:31;;;;;;;3.90;1.92;;;23.10;99.90;;;;;;5023666;28;20022;-69
2023/08/11 09:17:01;;;;;;;2.78;1.70;;;23.20;99.90;;;;;;5029068;28;20053;-68
2023/08/11 09:19:28;;;;;;;5.93;2.03;;;23.20;99.90;;;;;;5031144;28;20040;-68
2023/08/11 09:21:54;;;;;;;2.97;1.77;;;23.40;99.90;;;;;;5026250;28;20034;-69
2023/08/11 09:24:22;;;;;;;4.88;2.28;;;23.60;99.90;;;;;;5017836;28;20044;-68
2023/08/11 09:26:49;;;;;;;2.88;1.42;;;23.80;99.90;;;;;;5028354;28;20575;-68
2023/08/11 09:29:19;;;;;;;4.53;1.88;;;23.90;99.90;;;;;;5029443;28;20404;-68
2023/08/11 09:31:52;;;;;;;4.80;1.80;;;24.00;99.90;;;;;;5022721;28;20485;-68
2023/08/11 09:34:19;;;;;;;4.68;1.80;;;24.10;99.90;;;;;;5023933;28;20168;-68
2023/08/11 09:36:50;;;;;;;8.30;2.00;;;24.20;99.90;;;;;;5024841;28;20014;-69
2023/08/11 09:39:20;;;;;;;4.32;2.03;;;24.30;99.90;;;;;;5029507;28;20612;-70
2023/08/11 09:41:48;;;;;;;3.43;1.70;;;24.40;99.90;;;;;;5025232;28;20040;-67
2023/08/11 09:44:18;;;;;;;3.03;1.98;;;24.40;99.90;;;;;;5022509;28;20025;-67
2023/08/11 09:46:46;;;;;;;3.50;1.58;;;24.60;99.90;;;;;;5020296;28;20024;-67
2023/08/11 09:49:12;;;;;;;3.70;1.80;;;24.70;99.90;;;;;;5024878;28;20104;-68
2023/08/11 09:51:40;;;;;;;4.45;2.13;;;24.50;99.90;;;;;;5028101;28;20474;-67
2023/08/11 09:54:09;;;;;;;3.95;2.00;;;24.70;99.90;;;;;;5023072;28;20508;-68
2023/08/11 09:56:39;;;;;;;6.03;1.95;;;24.90;99.90;;;;;;5021007;28;20056;-69
2023/08/11 09:59:10;;;;;;;;;;;25.10;99.90;;;;;;5023716;28;20029;-67
2023/08/11 10:01:36;;;;;;;2.97;1.45;;;25.20;99.30;;;;;;5024498;28;19917;-69
2023/08/11 10:04:10;;;;;;;4.72;1.30;;;25.10;97.80;;;;;;5021120;28;20025;-68
2023/08/11 10:06:46;;;;;;;3.03;1.35;;;25.40;97.70;;;;;;5030661;28;20021;-68
2023/08/11 10:09:13;;;;;;;3.20;1.30;;;25.70;97.20;;;;;;5039645;28;20029;-69
2023/08/11 10:11:43;;;;;;;2.15;1.08;;;25.80;96.00;;;;;;5049921;28;20079;-69
2023/08/11 10:14:14;;;;;;;3.17;1.00;;;25.80;95.90;;;;;;5048291;28;20036;-68
2023/08/11 10:16:40;;;;;;;;;;;26.00;96.50;;;;;;5049145;28;20079;-69
2023/08/11 10:19:06;;;;;;;3.20;1.25;;;26.30;95.60;;;;;;5048724;28;19919;-68
2023/08/11 10:21:32;;;;;;;0.80;0.73;;;26.40;94.90;;;;;;5048989;28;20033;-68
2023/08/11 10:23:59;;;;;;;4.78;2.03;;;26.30;95.10;;;;;;5048081;28;20385;-68
2023/08/11 10:26:25;;;;;;;2.38;1.13;;;26.70;96.30;;;;;;5048812;28;20547;-68
2023/08/11 10:28:52;;;;;;;4.10;1.48;;;26.80;95.30;;;;;;5040725;28;20041;-68
2023/08/11 10:31:17;;;;;;;2.20;1.30;;;26.80;93.80;;;;;;5029661;28;20022;-68
2023/08/11 10:33:51;;;;;;;1.38;0.80;;;27.00;94.00;;;;;;5048668;28;20025;-69
2023/08/11 10:36:23;;;;;;;2.63;1.40;;;27.10;93.60;;;;;;5033838;28;20030;-68
2023/08/11 10:41:22;;;;;;;2.22;0.98;;;27.20;92.50;;;;;;5000785;28;20066;-69
2023/08/11 10:43:49;;;;;;;2.40;1.48;;;27.10;93.50;;;;;;5012011;28;20049;-68
2023/08/11 10:46:35;;;;;;;2.88;1.10;;;27.20;93.30;;;;;;5012697;28;20025;-68
2023/08/11 10:49:03;;;;;;;3.72;1.50;;;27.40;93.00;;;;;;5012628;28;20026;-69
2023/08/11 10:51:33;;;;;;;2.80;1.67;;;27.70;93.50;;;;;;5013516;28;20080;-67
2023/08/11 10:54:11;;;;;;;3.03;1.73;;;27.50;94.10;;;;;;5013087;28;20026;-68
2023/08/11 10:56:42;;;;;;;2.42;1.13;;;27.90;93.90;;;;;;5028966;28;20121;-68
2023/08/11 10:59:16;;;;;;;2.72;1.30;;;27.90;93.80;;;;;;5028428;28;20116;-69
2023/08/11 11:01:48;;;;;;;3.05;1.35;;;27.90;93.60;;;;;;5004840;28;20112;-67
2023/08/11 11:04:16;;;;;;;3.22;1.30;;;27.80;93.40;;;;;;5006537;28;20360;-67
2023/08/11 11:06:45;;;;;;;2.80;1.52;;;28.10;95.30;;;;;;5008275;28;20026;-68
2023/08/11 11:09:13;;;;;;;1.95;1.17;;;28.30;94.60;;;;;;4992209;28;20486;-68
2023/08/11 11:11:39;;;;;;;4.30;1.17;;;27.90;91.90;;;;;;4995923;28;20095;-68
2023/08/11 11:14:06;;;;;;;5.72;1.50;;;27.90;93.30;;;;;;5009511;28;20014;-67
2023/08/11 11:16:33;;;;;;;3.60;1.42;;;28.30;93.00;;;;;;5006091;28;20130;-66
2023/08/11 11:19:00;;;;;;;2.08;1.10;;;28.60;92.20;;;;;;5009786;28;20128;-66
2023/08/11 11:21:27;;;;;;;2.22;1.30;;;28.80;91.10;;;;;;5007646;28;20034;-66
2023/08/11 11:23:53;;;;;;;1.17;0.88;;;29.10;90.40;;;;;;4993832;28;20117;-68
2023/08/11 11:26:27;;;;;;;1.75;1.00;;;28.80;88.80;;;;;;4999061;28;20122;-68
2023/08/11 11:28:56;;;;;;;2.60;0.90;;;29.00;87.80;;;;;;4993494;28;20116;-68
2023/08/11 11:31:23;;;;;;;2.35;1.00;;;29.30;88.30;;;;;;5010730;28;20382;-69
2023/08/11 11:33:50;;;;;;;1.80;1.00;;;29.00;86.50;;;;;;5011027;28;20390;-67
2023/08/11 11:36:19;;;;;;;2.42;1.25;;;29.20;86.80;;;;;;5012054;28;20022;-67
2023/08/11 11:38:45;;;;;;;2.28;1.10;;;29.20;87.60;;;;;;5011483;28;20037;-65
2023/08/11 11:41:15;;;;;;;1.50;0.82;;;29.40;86.50;;;;;;5011672;28;20036;-65
2023/08/11 11:43:45;;;;;;;2.42;1.50;;;29.40;83.40;;;;;;5010022;28;20030;-65
2023/08/11 11:46:15;;;;;;;1.75;0.95;;;29.40;84.10;;;;;;5011074;28;20580;-65
2023/08/11 11:48:43;;;;;;;;;;;29.60;84.60;;;;;;5011961;28;20567;-65
2023/08/11 11:51:09;;;;;;;1.63;1.00;;;29.50;85.40;;;;;;5011105;28;20301;-65
2023/08/11 11:53:35;;;;;;;2.47;1.65;;;29.90;82.50;;;;;;4994034;28;20595;-65
2023/08/11 11:56:03;;;;;;;4.60;1.02;;;29.90;81.50;;;;;;5009501;28;20037;-65
2023/08/11 11:58:29;;;;;;;2.38;1.42;;;30.10;82.70;;;;;;5010355;28;20498;-65
2023/08/11 12:00:55;;;;;;;2.28;1.05;;;29.80;83.30;;;;;;5008661;28;20048;-66
2023/08/11 12:03:22;;;;;;;2.40;1.40;;;29.90;82.20;;;;;;5006689;28;20022;-67
2023/08/11 12:05:48;;;;;;;2.75;1.00;;;29.40;81.80;;;;;;4982689;28;20106;-66
2023/08/11 12:08:23;;;;;;;2.15;1.10;;;30.20;84.40;;;;;;5011617;28;20104;-66
2023/08/11 12:10:49;;;;;;;3.20;1.33;;;30.10;80.20;;;;;;5011074;28;20066;-66
2023/08/11 12:13:16;;;;;;;3.47;1.00;;;30.20;82.80;;;;;;5010415;28;20018;-65
2023/08/11 12:15:43;;;;;;;4.78;1.60;;;30.30;80.20;;;;;;5010961;28;20478;-66
2023/08/11 12:18:10;;;;;;;2.42;0.90;;;30.60;82.60;;;;;;5012174;28;20026;-66
2023/08/11 12:20:36;;;;;;;2.85;0.88;;;30.10;80.30;;;;;;5010555;28;20136;-66
2023/08/11 12:23:02;;;;;;;2.35;1.20;;;30.40;79.50;;;;;;5011389;28;20553;-66
2023/08/11 12:25:31;;;;;;;1.92;0.95;;;30.40;79.50;;;;;;5009033;28;20030;-67
2023/08/11 12:27:58;;;;;;;2.53;1.02;;;30.50;79.70;;;;;;5008317;28;20026;-66
2023/08/11 12:30:25;;;;;;;4.97;1.38;;;30.60;78.40;;;;;;5007587;28;20076;-67
2023/08/11 12:32:50;;;;;;;1.98;0.98;;;30.30;77.40;;;;;;5009498;28;20048;-66
2023/08/11 12:35:16;;;;;;;1.73;0.73;;;31.00;79.10;;;;;;5006027;28;20033;-67
2023/08/11 12:37:42;;;;;;;1.42;1.00;;;30.80;78.90;;;;;;5011879;28;20457;-67
2023/08/11 12:40:09;;;;;;;1.60;0.88;;;31.10;79.70;;;;;;5020422;28;20492;-67
2023/08/11 12:42:36;;;;;;;5.28;1.38;;;31.00;79.50;;;;;;5030414;28;20021;-66
2023/08/11 12:45:07;;;;;;;3.33;1.20;;;31.10;77.90;;;;;;5013885;28;20028;-67
2023/08/11 12:47:33;;;;;;;2.20;1.00;;;31.60;77.80;;;;;;5031188;28;20370;-67
2023/08/11 12:49:58;;;;;;;1.58;0.88;;;32.10;74.70;;;;;;5030811;28;20040;-67
2023/08/11 12:52:24;;;;;;;1.75;0.93;;;32.50;73.10;;;;;;5030480;28;20026;-67